createdAt,value
2019-06-26T00:02:14.327Z,5.50
2019-06-26T00:04:43.259Z,4.97
2019-06-26T00:07:12.074Z,5.40
2019-06-26T00:09:41.001Z,6.37
2019-06-26T00:12:10.031Z,5.90
2019-06-26T00:14:39.146Z,5.70
2019-06-26T00:17:08.166Z,5.60
2019-06-26T00:19:37.034Z,5.97
2019-06-26T00:22:05.939Z,5.53
2019-06-26T00:27:05.290Z,5.73
2019-06-26T00:29:34.404Z,5.30
2019-06-26T00:32:03.348Z,5.77
2019-06-26T00:34:31.995Z,5.50
2019-06-26T00:37:00.910Z,5.70
2019-06-26T00:39:29.714Z,5.80
2019-06-26T00:41:59.458Z,5.73
2019-06-26T00:44:28.511Z,5.87
2019-06-26T00:46:57.245Z,6.17
2019-06-26T00:49:26.162Z,5.77
2019-06-26T00:51:55.009Z,5.43
2019-06-26T00:54:23.625Z,5.80
2019-06-26T00:56:52.513Z,5.70
2019-06-26T00:59:21.279Z,5.93
2019-06-26T01:01:50.279Z,5.77
2019-06-26T01:04:23.660Z,5.70
2019-06-26T01:06:52.724Z,6.17
2019-06-26T01:09:21.688Z,5.90
2019-06-26T01:11:50.401Z,5.80
2019-06-26T01:14:19.338Z,5.80
2019-06-26T01:16:48.105Z,6.40
2019-06-26T01:19:16.896Z,5.93
2019-06-26T01:21:46.136Z,5.90
2019-06-26T01:24:14.804Z,5.77
2019-06-26T01:26:43.816Z,5.50
2019-06-26T01:29:12.687Z,6.37
2019-06-26T01:31:41.704Z,6.70
2019-06-26T01:34:10.714Z,6.20
2019-06-26T01:36:40.213Z,7.40
2019-06-26T01:39:08.883Z,10.60
2019-06-26T01:41:38.185Z,9.10
2019-06-26T01:44:14.920Z,7.87
2019-06-26T01:46:37.623Z,8.20
2019-06-26T01:49:06.670Z,8.27
2019-06-26T01:51:35.818Z,7.70
2019-06-26T01:54:05.139Z,7.20
2019-06-26T01:56:34.393Z,9.40
2019-06-26T01:59:03.270Z,12.80
2019-06-26T02:01:32.414Z,9.47
2019-06-26T02:04:01.131Z,7.97
2019-06-26T02:06:30.593Z,7.40
2019-06-26T02:08:59.378Z,7.00
2019-06-26T02:11:28.444Z,6.80
2019-06-26T02:13:57.703Z,7.40
2019-06-26T02:16:26.774Z,7.37
2019-06-26T02:18:59.329Z,6.87
2019-06-26T02:21:28.493Z,6.80
2019-06-26T02:23:57.169Z,6.73
2019-06-26T02:26:26.335Z,7.10
2019-06-26T02:28:55.292Z,7.00
2019-06-26T02:31:24.058Z,7.13
2019-06-26T02:33:53.007Z,7.53
2019-06-26T02:36:21.800Z,7.40
2019-06-26T02:38:50.647Z,6.70
2019-06-26T02:41:19.557Z,7.17
2019-06-26T02:43:48.360Z,7.87
2019-06-26T02:46:17.312Z,6.87
2019-06-26T02:48:46.596Z,7.00
2019-06-26T02:51:15.757Z,7.20
2019-06-26T02:53:44.731Z,6.93
2019-06-26T02:56:13.577Z,7.53
2019-06-26T02:58:42.859Z,6.80
2019-06-26T03:01:11.779Z,6.93
2019-06-26T03:03:40.928Z,7.40
2019-06-26T03:06:09.744Z,7.93
2019-06-26T03:08:38.748Z,7.47
2019-06-26T03:11:07.861Z,7.37
2019-06-26T03:13:36.782Z,7.30
2019-06-26T03:16:05.769Z,7.27
2019-06-26T03:18:34.798Z,8.33
2019-06-26T03:21:03.890Z,7.70
2019-06-26T03:23:33.440Z,7.53
2019-06-26T03:26:02.638Z,7.23
2019-06-26T03:28:31.588Z,7.50
2019-06-26T03:31:00.303Z,7.60
2019-06-26T03:33:29.340Z,7.87
2019-06-26T03:35:57.970Z,8.10
2019-06-26T03:38:27.015Z,7.97
2019-06-26T03:40:55.951Z,7.63
2019-06-26T03:43:24.999Z,7.97
2019-06-26T03:45:53.784Z,8.50
2019-06-26T03:48:22.936Z,7.63
2019-06-26T03:50:51.614Z,8.20
2019-06-26T03:53:20.678Z,7.90
2019-06-26T03:55:50.251Z,8.07
2019-06-26T03:58:18.993Z,7.83
2019-06-26T04:00:48.218Z,8.30
2019-06-26T04:03:16.987Z,9.07
2019-06-26T04:05:45.775Z,9.00
2019-06-26T04:08:14.654Z,8.80
2019-06-26T04:10:43.826Z,8.47
2019-06-26T04:13:12.699Z,7.80
2019-06-26T04:15:42.949Z,8.57
2019-06-26T04:18:12.015Z,9.13
2019-06-26T04:20:41.189Z,8.07
2019-06-26T04:23:10.185Z,8.57
2019-06-26T04:25:39.511Z,9.13
2019-06-26T04:28:08.273Z,8.80
2019-06-26T04:30:37.127Z,8.60
2019-06-26T04:33:06.213Z,8.27
2019-06-26T04:35:35.339Z,8.83
2019-06-26T04:38:04.224Z,9.47
2019-06-26T04:40:33.202Z,9.73
2019-06-26T04:43:01.895Z,9.90
2019-06-26T04:45:33.069Z,9.50
2019-06-26T04:48:22.932Z,8.97
2019-06-26T04:51:15.342Z,9.27
2019-06-26T04:53:44.959Z,9.27
2019-06-26T04:56:13.755Z,9.27
2019-06-26T04:58:42.399Z,10.37
2019-06-26T05:01:11.066Z,9.73
2019-06-26T05:03:40.098Z,10.20
2019-06-26T05:06:08.907Z,10.23
2019-06-26T05:08:38.274Z,9.60
2019-06-26T05:11:07.324Z,9.73
2019-06-26T05:13:36.118Z,10.03
2019-06-26T05:16:15.115Z,9.57
2019-06-26T05:18:35.993Z,9.80
2019-06-26T05:21:04.937Z,10.10
2019-06-26T05:23:33.788Z,10.47
2019-06-26T05:26:02.735Z,9.23
2019-06-26T05:28:31.427Z,9.30
2019-06-26T05:31:00.194Z,9.07
2019-06-26T05:33:29.169Z,9.60
2019-06-26T05:35:58.077Z,10.07
2019-06-26T05:38:27.161Z,9.90
2019-06-26T05:40:56.163Z,9.43
2019-06-26T05:43:26.405Z,9.60
2019-06-26T05:45:55.393Z,10.10
2019-06-26T05:48:24.376Z,9.80
2019-06-26T05:50:53.181Z,9.97
2019-06-26T05:53:22.562Z,9.57
2019-06-26T05:55:51.338Z,9.17
2019-06-26T05:58:20.372Z,9.87
2019-06-26T06:00:49.077Z,9.40
2019-06-26T06:03:17.924Z,9.60
2019-06-26T06:05:47.203Z,9.30
2019-06-26T06:08:16.101Z,8.50
2019-06-26T06:10:45.418Z,9.43
2019-06-26T06:13:14.091Z,8.63
2019-06-26T06:15:44.679Z,8.37
2019-06-26T06:18:13.873Z,8.60
2019-06-26T06:20:42.965Z,8.73
2019-06-26T06:23:12.412Z,8.73
2019-06-26T06:25:41.124Z,8.10
2019-06-26T06:28:09.914Z,9.27
2019-06-26T06:30:38.971Z,8.43
2019-06-26T06:33:07.637Z,8.80
2019-06-26T06:35:36.312Z,7.93
2019-06-26T06:38:05.513Z,8.27
2019-06-26T06:40:34.773Z,7.87
2019-06-26T06:43:03.437Z,7.93
2019-06-26T06:45:32.847Z,8.80
2019-06-26T06:48:01.526Z,7.97
2019-06-26T06:50:30.530Z,7.70
2019-06-26T06:53:00.404Z,7.73
2019-06-26T06:55:29.119Z,7.97
2019-06-26T06:57:57.935Z,7.70
2019-06-26T07:00:27.297Z,8.07
2019-06-26T07:02:56.300Z,8.37
2019-06-26T07:05:25.161Z,7.90
2019-06-26T07:07:53.926Z,7.70
2019-06-26T07:10:22.641Z,7.90
2019-06-26T07:12:51.869Z,8.03
2019-06-26T07:15:20.841Z,7.73
2019-06-26T07:17:50.291Z,8.10
2019-06-26T07:20:19.174Z,8.70
2019-06-26T07:22:48.578Z,8.17
2019-06-26T07:25:17.518Z,7.43
2019-06-26T07:27:46.439Z,7.00
2019-06-26T07:30:15.702Z,8.07
2019-06-26T07:32:44.349Z,7.73
2019-06-26T07:35:13.347Z,7.50
2019-06-26T07:37:42.279Z,7.27
2019-06-26T07:40:11.410Z,7.73
2019-06-26T07:42:40.349Z,7.60
2019-06-26T07:45:09.670Z,6.97
2019-06-26T07:47:43.619Z,7.40
2019-06-26T07:50:09.470Z,7.13
2019-06-26T07:52:38.409Z,7.27
2019-06-26T07:55:11.630Z,7.23
2019-06-26T07:57:38.979Z,6.90
2019-06-26T08:00:08.726Z,7.10
2019-06-26T08:02:37.514Z,6.73
2019-06-26T08:05:07.161Z,6.80
2019-06-26T08:07:36.100Z,6.73
2019-06-26T08:10:06.261Z,6.93
2019-06-26T08:12:34.994Z,6.97
2019-06-26T08:15:04.349Z,6.73
2019-06-26T08:17:33.513Z,6.93
2019-06-26T08:20:02.453Z,6.70
2019-06-26T08:22:31.581Z,6.63
2019-06-26T08:25:00.277Z,6.73
2019-06-26T08:27:29.169Z,6.63
2019-06-26T08:30:00.666Z,6.40
2019-06-26T08:32:39.957Z,6.60
2019-06-26T08:35:05.989Z,6.63
2019-06-26T08:37:35.437Z,7.20
2019-06-26T08:40:04.586Z,6.50
2019-06-26T08:42:33.348Z,6.70
2019-06-26T08:45:01.964Z,6.57
2019-06-26T08:47:30.968Z,6.30
2019-06-26T08:49:59.897Z,6.57
2019-06-26T08:52:28.786Z,6.17
2019-06-26T08:54:57.909Z,6.10
2019-06-26T08:57:32.015Z,6.10
2019-06-26T09:00:01.387Z,6.20
2019-06-26T09:02:30.481Z,6.70
2019-06-26T09:04:59.507Z,6.87
2019-06-26T09:07:28.529Z,6.67
2019-06-26T09:09:58.106Z,7.10
2019-06-26T09:12:26.793Z,7.17
2019-06-26T09:14:55.864Z,7.13
2019-06-26T09:17:25.429Z,7.80
2019-06-26T09:19:54.289Z,7.37
2019-06-26T09:22:23.664Z,7.90
2019-06-26T09:24:52.812Z,7.80
2019-06-26T09:27:21.778Z,7.93
2019-06-26T09:29:50.731Z,8.23
2019-06-26T09:32:19.729Z,8.03
2019-06-26T09:34:48.789Z,8.03
2019-06-26T09:37:17.734Z,8.37
2019-06-26T09:39:46.921Z,8.23
2019-06-26T09:42:19.313Z,7.73
2019-06-26T09:44:46.948Z,8.40
2019-06-26T09:47:15.875Z,8.57
2019-06-26T09:49:44.649Z,7.73
2019-06-26T09:52:13.687Z,6.93
2019-06-26T09:54:42.824Z,7.77
2019-06-26T09:57:11.613Z,7.27
2019-06-26T09:59:40.453Z,7.57
2019-06-26T10:02:09.357Z,7.23
2019-06-26T10:04:38.450Z,8.10
2019-06-26T10:07:07.484Z,8.10
2019-06-26T10:09:36.373Z,8.30
2019-06-26T10:12:05.478Z,8.77
2019-06-26T10:14:46.549Z,8.47
2019-06-26T10:17:05.049Z,8.00
2019-06-26T10:19:33.924Z,8.97
2019-06-26T10:22:03.162Z,7.47
2019-06-26T10:24:32.203Z,9.10
2019-06-26T10:27:01.038Z,8.03
2019-06-26T10:29:29.754Z,7.60
2019-06-26T10:31:59.400Z,7.90
2019-06-26T10:34:28.554Z,7.70
2019-06-26T10:36:57.730Z,8.00
2019-06-26T10:39:26.757Z,7.57
2019-06-26T10:41:55.997Z,7.93
2019-06-26T10:44:24.901Z,7.90
2019-06-26T10:46:53.834Z,8.00
2019-06-26T10:49:27.594Z,8.60
2019-06-26T10:51:53.618Z,9.07
2019-06-26T10:54:22.231Z,8.70
2019-06-26T10:56:51.520Z,8.70
2019-06-26T10:59:20.178Z,8.53
2019-06-26T11:01:48.956Z,8.77
2019-06-26T11:04:18.033Z,8.90
2019-06-26T11:06:46.787Z,8.33
2019-06-26T11:09:15.804Z,7.77
2019-06-26T11:11:45.762Z,7.63
2019-06-26T11:14:15.197Z,7.57
2019-06-26T11:16:44.223Z,7.50
2019-06-26T11:19:16.273Z,7.67
2019-06-26T11:21:45.370Z,6.50
2019-06-26T11:24:14.169Z,6.80
2019-06-26T11:26:43.304Z,7.37
2019-06-26T11:29:12.216Z,7.87
2019-06-26T11:31:40.900Z,8.07
2019-06-26T11:34:09.846Z,8.70
2019-06-26T11:36:38.902Z,9.10
2019-06-26T11:39:08.649Z,8.13
2019-06-26T11:41:37.718Z,8.73
2019-06-26T11:44:06.830Z,9.43
2019-06-26T11:46:38.221Z,9.40
2019-06-26T11:49:07.240Z,10.33
2019-06-26T11:51:36.026Z,10.13
2019-06-26T11:54:04.753Z,10.60
2019-06-26T11:56:34.112Z,12.07
2019-06-26T11:59:03.061Z,10.20
2019-06-26T12:01:32.153Z,10.43
2019-06-26T12:04:00.844Z,11.60
2019-06-26T12:06:29.817Z,11.30
2019-06-26T12:08:58.679Z,12.40
2019-06-26T12:11:27.693Z,11.97
2019-06-26T12:13:56.972Z,13.00
2019-06-26T12:16:25.900Z,11.67
2019-06-26T12:18:54.971Z,11.50
2019-06-26T12:21:24.156Z,11.30
2019-06-26T12:23:52.815Z,11.70
2019-06-26T12:26:21.864Z,12.00
2019-06-26T12:28:51.022Z,11.50
2019-06-26T12:31:20.060Z,13.03
2019-06-26T12:33:48.767Z,12.23
2019-06-26T12:36:17.643Z,12.00
2019-06-26T12:38:46.297Z,11.87
2019-06-26T12:41:15.745Z,11.50
2019-06-26T12:43:44.941Z,11.93
2019-06-26T12:46:17.892Z,12.07
2019-06-26T12:48:44.511Z,11.80
2019-06-26T12:51:13.890Z,9.47
2019-06-26T12:53:42.837Z,9.73
2019-06-26T12:56:12.663Z,9.30
2019-06-26T12:58:42.285Z,9.17
2019-06-26T13:01:10.971Z,8.37
2019-06-26T13:03:40.048Z,7.23
2019-06-26T13:06:09.132Z,7.10
2019-06-26T13:08:38.137Z,6.63
2019-06-26T13:11:06.840Z,7.20
2019-06-26T13:13:36.502Z,6.10
2019-06-26T13:16:05.311Z,6.67
2019-06-26T13:18:34.077Z,6.77
2019-06-26T13:21:05.190Z,6.27
2019-06-26T13:23:33.669Z,5.57
2019-06-26T13:26:02.887Z,5.63
2019-06-26T13:28:31.959Z,5.77
2019-06-26T13:31:00.802Z,5.47
2019-06-26T13:33:30.141Z,5.00
2019-06-26T13:36:00.302Z,5.53
2019-06-26T13:38:29.812Z,5.33
2019-06-26T13:40:58.875Z,5.80
2019-06-26T13:43:27.502Z,5.00
2019-06-26T13:45:58.836Z,5.33
2019-06-26T13:49:55.748Z,5.87
2019-06-26T13:52:24.467Z,5.00
2019-06-26T13:54:53.177Z,5.20
2019-06-26T13:57:22.198Z,4.73
2019-06-26T13:59:51.461Z,4.80
2019-06-26T14:02:20.194Z,5.50
2019-06-26T14:04:49.356Z,5.80
2019-06-26T14:07:18.098Z,5.63
2019-06-26T14:09:47.570Z,5.40
2019-06-26T14:12:19.162Z,5.13
2019-06-26T14:14:57.275Z,4.93
2019-06-26T14:17:18.363Z,4.60
2019-06-26T14:19:47.066Z,4.70
2019-06-26T14:22:16.458Z,5.27
2019-06-26T14:24:45.192Z,4.80
2019-06-26T14:27:14.147Z,4.47
2019-06-26T14:29:43.210Z,4.77
2019-06-26T14:32:12.096Z,4.73
2019-06-26T14:34:40.961Z,4.50
2019-06-26T14:37:10.182Z,4.50
2019-06-26T14:39:41.060Z,4.90
2019-06-26T14:42:09.602Z,4.77
2019-06-26T14:44:38.628Z,4.70
2019-06-26T14:47:07.308Z,4.80
2019-06-26T14:49:36.396Z,5.37
2019-06-26T14:52:05.332Z,4.93
2019-06-26T14:54:34.151Z,5.13
2019-06-26T14:57:03.470Z,4.80
2019-06-26T14:59:32.353Z,4.67
2019-06-26T15:02:01.486Z,5.20
2019-06-26T15:04:30.317Z,5.27
2019-06-26T15:06:59.036Z,4.30
2019-06-26T15:09:27.955Z,4.80
2019-06-26T15:11:57.127Z,5.00
2019-06-26T15:14:26.116Z,4.63
2019-06-26T15:16:55.032Z,4.80
2019-06-26T15:19:24.190Z,4.23
2019-06-26T15:21:58.250Z,4.33
2019-06-26T15:24:23.794Z,4.50
2019-06-26T15:26:52.738Z,4.30
2019-06-26T15:29:21.945Z,4.00
2019-06-26T15:31:50.940Z,3.37
2019-06-26T15:34:19.696Z,3.80
2019-06-26T15:36:48.798Z,4.20
2019-06-26T15:39:17.702Z,3.30
2019-06-26T15:41:46.987Z,3.77
2019-06-26T15:44:15.747Z,3.67
2019-06-26T15:46:44.438Z,3.17
2019-06-26T15:49:13.535Z,3.20
2019-06-26T15:51:42.250Z,3.20
2019-06-26T15:54:11.497Z,3.17
2019-06-26T15:56:40.452Z,3.70
2019-06-26T15:59:09.445Z,2.90
2019-06-26T16:01:38.991Z,3.73
2019-06-26T16:04:07.996Z,3.87
2019-06-26T16:06:37.435Z,3.07
2019-06-26T16:09:06.796Z,3.50
2019-06-26T16:11:35.965Z,3.33
2019-06-26T16:14:04.890Z,3.27
2019-06-26T16:16:35.552Z,3.30
2019-06-26T16:19:09.066Z,3.73
2019-06-26T16:21:38.090Z,3.07
2019-06-26T16:24:07.211Z,3.30
2019-06-26T16:26:36.175Z,3.13
2019-06-26T16:29:05.131Z,3.90
2019-06-26T16:31:34.095Z,2.90
2019-06-26T16:34:03.221Z,3.10
2019-06-26T16:36:32.722Z,2.80
2019-06-26T16:39:01.487Z,3.17
2019-06-26T16:41:30.501Z,3.10
2019-06-26T16:43:59.539Z,2.90
2019-06-26T16:46:28.306Z,2.70
2019-06-26T16:48:57.340Z,2.63
2019-06-26T16:51:26.251Z,2.90
2019-06-26T16:53:55.319Z,3.00
2019-06-26T16:56:24.528Z,3.73
2019-06-26T16:58:53.189Z,3.23
2019-06-26T17:01:22.082Z,3.70
2019-06-26T17:03:50.873Z,3.77
2019-06-26T17:06:19.701Z,3.37
2019-06-26T17:08:48.671Z,3.60
2019-06-26T17:11:17.894Z,3.70
2019-06-26T17:13:47.076Z,3.30
2019-06-26T17:16:16.454Z,3.30
2019-06-26T17:18:45.662Z,3.93
2019-06-26T17:21:14.739Z,4.27
2019-06-26T17:23:43.700Z,3.77
2019-06-26T17:26:12.761Z,4.43
2019-06-26T17:28:41.528Z,4.30
2019-06-26T17:31:10.887Z,4.37
2019-06-26T17:33:39.768Z,4.70
2019-06-26T17:36:08.806Z,4.43
2019-06-26T17:38:37.859Z,4.53
2019-06-26T17:41:06.697Z,5.10
2019-06-26T17:43:35.678Z,5.07
2019-06-26T17:46:04.698Z,5.33
2019-06-26T17:48:33.632Z,5.10
2019-06-26T17:51:02.399Z,6.07
2019-06-26T17:53:31.375Z,6.43
2019-06-26T17:56:00.283Z,5.60
2019-06-26T17:58:29.616Z,6.20
2019-06-26T18:00:58.936Z,6.60
2019-06-26T18:03:27.800Z,6.70
2019-06-26T18:05:56.487Z,6.20
2019-06-26T18:08:25.801Z,7.37
2019-06-26T18:10:54.514Z,7.17
2019-06-26T18:13:23.812Z,7.47
2019-06-26T18:15:53.021Z,8.80
2019-06-26T18:18:21.964Z,7.20
2019-06-26T18:20:51.147Z,6.87
2019-06-26T18:23:33.630Z,7.50
2019-06-26T18:25:54.241Z,7.50
2019-06-26T18:28:21.517Z,7.50
2019-06-26T18:30:50.287Z,7.47
2019-06-26T18:33:21.855Z,8.03
2019-06-26T18:35:50.882Z,7.33
2019-06-26T18:38:20.072Z,7.87
2019-06-26T18:40:49.207Z,6.97
2019-06-26T18:43:17.885Z,6.80
2019-06-26T18:45:46.857Z,7.00
2019-06-26T18:48:15.553Z,6.77
2019-06-26T18:50:44.955Z,6.67
2019-06-26T18:53:13.646Z,5.90
2019-06-26T18:55:42.738Z,5.90
2019-06-26T18:58:11.487Z,5.60
2019-06-26T19:00:40.637Z,5.30
2019-06-26T19:03:09.323Z,4.73
2019-06-26T19:05:38.695Z,5.60
2019-06-26T19:08:09.200Z,5.23
2019-06-26T19:10:38.762Z,4.90
2019-06-26T19:13:09.516Z,4.90
2019-06-26T19:15:38.867Z,4.57
2019-06-26T19:18:08.166Z,3.77
2019-06-26T19:20:39.969Z,3.57
2019-06-26T19:23:14.230Z,3.97
2019-06-26T19:25:46.261Z,3.40
2019-06-26T19:28:14.922Z,3.67
2019-06-26T19:30:43.745Z,3.53
2019-06-26T19:33:12.622Z,3.30
2019-06-26T19:35:44.515Z,3.57
2019-06-26T19:38:13.549Z,3.77
2019-06-26T19:40:42.609Z,3.40
2019-06-26T19:43:11.709Z,3.70
2019-06-26T19:45:40.529Z,3.57
2019-06-26T19:48:09.467Z,2.87
2019-06-26T19:50:38.319Z,2.87
2019-06-26T19:53:07.478Z,3.40
2019-06-26T19:55:36.416Z,3.40
2019-06-26T19:58:05.281Z,3.17
2019-06-26T20:00:33.959Z,3.13
2019-06-26T20:03:02.796Z,3.10
2019-06-26T20:05:32.012Z,3.20
2019-06-26T20:08:02.350Z,3.90
2019-06-26T20:10:31.209Z,3.23
2019-06-26T20:13:00.365Z,3.57
2019-06-26T20:15:29.250Z,3.47
2019-06-26T20:17:58.138Z,3.57
2019-06-26T20:20:27.084Z,3.83
2019-06-26T20:22:56.093Z,4.03
2019-06-26T20:25:24.695Z,3.97
2019-06-26T20:27:56.806Z,4.27
2019-06-26T20:30:27.273Z,3.97
2019-06-26T20:32:55.916Z,4.70
2019-06-26T20:35:24.804Z,4.10
2019-06-26T20:37:53.757Z,4.63
2019-06-26T20:40:22.815Z,4.97
2019-06-26T20:42:52.043Z,4.27
2019-06-26T20:45:21.056Z,4.43
2019-06-26T20:47:49.958Z,4.80
2019-06-26T20:50:18.866Z,4.53
2019-06-26T20:52:47.564Z,4.80
2019-06-26T20:55:17.054Z,4.60
2019-06-26T20:58:06.129Z,3.57
2019-06-26T21:00:41.056Z,5.10
2019-06-26T21:03:10.021Z,4.83
2019-06-26T21:05:39.225Z,4.90
2019-06-26T21:08:08.199Z,4.67
2019-06-26T21:10:36.839Z,4.13
2019-06-26T21:13:05.879Z,4.40
2019-06-26T21:15:34.771Z,4.40
2019-06-26T21:18:03.693Z,4.37
2019-06-26T21:20:33.206Z,3.90
2019-06-26T21:23:02.202Z,3.60
2019-06-26T21:25:30.885Z,4.00
2019-06-26T21:28:00.045Z,4.20
2019-06-26T21:30:28.970Z,3.90
2019-06-26T21:32:58.169Z,3.77
2019-06-26T21:35:27.132Z,2.97
2019-06-26T21:37:56.017Z,3.60
2019-06-26T21:40:29.185Z,3.60
2019-06-26T21:43:17.185Z,3.43
2019-06-26T21:45:46.103Z,3.87
2019-06-26T21:48:15.194Z,3.20
2019-06-26T21:50:44.158Z,3.47
2019-06-26T21:53:13.046Z,3.57
2019-06-26T21:55:41.921Z,3.70
2019-06-26T21:58:10.590Z,3.60
2019-06-26T22:00:40.458Z,2.93
2019-06-26T22:03:09.533Z,3.30
2019-06-26T22:05:38.560Z,3.53
2019-06-26T22:08:07.422Z,3.10
2019-06-26T22:10:36.415Z,3.77
2019-06-26T22:13:05.294Z,3.40
2019-06-26T22:15:34.012Z,3.53
2019-06-26T22:18:02.701Z,3.43
2019-06-26T22:20:31.419Z,3.57
2019-06-26T22:23:00.683Z,3.37
2019-06-26T22:25:29.321Z,3.67
2019-06-26T22:27:58.464Z,3.30
2019-06-26T22:30:27.370Z,3.83
2019-06-26T22:32:56.200Z,3.83
2019-06-26T22:35:24.956Z,3.03
2019-06-26T22:37:53.694Z,3.00
2019-06-26T22:40:22.492Z,3.37
2019-06-26T22:42:51.174Z,3.60
2019-06-26T22:45:20.105Z,3.03
2019-06-26T22:47:48.842Z,3.10
2019-06-26T22:50:18.024Z,3.03
2019-06-26T22:52:47.198Z,3.27
2019-06-26T22:55:16.053Z,3.13
2019-06-26T22:57:45.107Z,3.00
2019-06-26T23:00:15.832Z,3.33
2019-06-26T23:02:45.067Z,2.90
2019-06-26T23:05:13.922Z,3.77
2019-06-26T23:07:42.818Z,3.43
2019-06-26T23:10:11.988Z,3.77
2019-06-26T23:12:40.673Z,3.90
2019-06-26T23:15:09.794Z,3.60
2019-06-26T23:17:38.853Z,3.20
2019-06-26T23:20:08.144Z,2.97
2019-06-26T23:22:37.514Z,2.83
2019-06-26T23:25:06.640Z,3.43
2019-06-26T23:27:35.680Z,3.27
2019-06-26T23:30:04.985Z,3.00
2019-06-26T23:32:33.811Z,3.00
2019-06-26T23:35:02.754Z,2.90
2019-06-26T23:37:34.780Z,3.27
2019-06-26T23:40:03.485Z,2.97
2019-06-26T23:42:32.880Z,3.00
2019-06-26T23:45:01.631Z,2.63
2019-06-26T23:47:30.600Z,3.10
2019-06-26T23:49:59.570Z,3.53
2019-06-26T23:52:28.575Z,2.97
2019-06-26T23:54:57.652Z,3.27
2019-06-26T23:57:26.381Z,3.37
2019-06-26T23:59:55.200Z,3.53
